sensor_id;sensor_type;location;lat;lon;timestamp;P1;durP1;ratioP1;P2;durP2;ratioP2
31686;SDS011;18285;51.330;4.946;2023-09-19T00:02:38;3.13;;;1.33;;
31686;SDS011;18285;51.330;4.946;2023-09-19T00:51:02;4.28;;;1.63;;
31686;SDS011;18285;51.330;4.946;2023-09-19T01:39:28;4.00;;;1.70;;
31686;SDS011;18285;51.330;4.946;2023-09-19T02:03:39;5.00;;;1.93;;
31686;SDS011;18285;51.330;4.946;2023-09-19T02:27:50;3.97;;;1.50;;
31686;SDS011;18285;51.330;4.946;2023-09-19T02:52:01;6.27;;;1.57;;
31686;SDS011;18285;51.330;4.946;2023-09-19T03:16:13;5.03;;;1.85;;
31686;SDS011;18285;51.330;4.946;2023-09-19T04:04:36;4.93;;;1.90;;
31686;SDS011;18285;51.330;4.946;2023-09-19T04:28:46;3.73;;;1.40;;
31686;SDS011;18285;51.330;4.946;2023-09-19T04:52:57;4.00;;;1.50;;
31686;SDS011;18285;51.330;4.946;2023-09-19T05:17:08;7.07;;;1.73;;
31686;SDS011;18285;51.330;4.946;2023-09-19T05:41:18;3.90;;;1.53;;
31686;SDS011;18285;51.330;4.946;2023-09-19T06:05:29;6.43;;;2.80;;
31686;SDS011;18285;51.330;4.946;2023-09-19T06:29:41;6.20;;;3.03;;
31686;SDS011;18285;51.330;4.946;2023-09-19T06:53:52;7.43;;;2.87;;
31686;SDS011;18285;51.330;4.946;2023-09-19T07:18:05;6.90;;;2.40;;
31686;SDS011;18285;51.330;4.946;2023-09-19T08:06:27;6.60;;;2.47;;
31686;SDS011;18285;51.330;4.946;2023-09-19T08:30:40;3.85;;;1.90;;
31686;SDS011;18285;51.330;4.946;2023-09-19T08:54:51;4.23;;;2.10;;
31686;SDS011;18285;51.330;4.946;2023-09-19T09:19:04;4.07;;;1.80;;
31686;SDS011;18285;51.330;4.946;2023-09-19T09:43:25;4.63;;;1.83;;
31686;SDS011;18285;51.330;4.946;2023-09-19T10:07:57;3.77;;;1.50;;
31686;SDS011;18285;51.330;4.946;2023-09-19T10:32:22;5.28;;;1.67;;
31686;SDS011;18285;51.330;4.946;2023-09-19T10:56:35;3.45;;;1.38;;
31686;SDS011;18285;51.330;4.946;2023-09-19T11:20:48;2.67;;;1.20;;
31686;SDS011;18285;51.330;4.946;2023-09-19T11:45:01;3.05;;;1.00;;
31686;SDS011;18285;51.330;4.946;2023-09-19T12:09:12;1.37;;;0.67;;
31686;SDS011;18285;51.330;4.946;2023-09-19T12:33:26;1.35;;;0.60;;
31686;SDS011;18285;51.330;4.946;2023-09-19T12:57:38;0.98;;;0.50;;
31686;SDS011;18285;51.330;4.946;2023-09-19T13:21:49;2.73;;;0.80;;
31686;SDS011;18285;51.330;4.946;2023-09-19T13:46:01;0.73;;;0.50;;
31686;SDS011;18285;51.330;4.946;2023-09-19T14:10:12;1.93;;;0.80;;
31686;SDS011;18285;51.330;4.946;2023-09-19T14:34:22;1.53;;;0.70;;
31686;SDS011;18285;51.330;4.946;2023-09-19T14:58:33;4.37;;;0.83;;
31686;SDS011;18285;51.330;4.946;2023-09-19T15:22:44;3.37;;;1.20;;
31686;SDS011;18285;51.330;4.946;2023-09-19T16:11:07;3.72;;;1.42;;
31686;SDS011;18285;51.330;4.946;2023-09-19T16:59:29;5.70;;;1.80;;
31686;SDS011;18285;51.330;4.946;2023-09-19T17:23:40;5.43;;;2.17;;
31686;SDS011;18285;51.330;4.946;2023-09-19T17:47:50;5.77;;;1.80;;
31686;SDS011;18285;51.330;4.946;2023-09-19T18:12:01;9.00;;;1.93;;
31686;SDS011;18285;51.330;4.946;2023-09-19T18:36:12;5.07;;;1.90;;
31686;SDS011;18285;51.330;4.946;2023-09-19T19:00:23;5.07;;;1.70;;
31686;SDS011;18285;51.330;4.946;2023-09-19T19:24:35;7.25;;;2.10;;
31686;SDS011;18285;51.330;4.946;2023-09-19T19:48:49;5.93;;;2.13;;
31686;SDS011;18285;51.330;4.946;2023-09-19T20:13:01;3.85;;;1.77;;
31686;SDS011;18285;51.330;4.946;2023-09-19T20:37:16;4.97;;;1.73;;
31686;SDS011;18285;51.330;4.946;2023-09-19T21:01:27;2.40;;;1.70;;
31686;SDS011;18285;51.330;4.946;2023-09-19T21:25:39;3.25;;;1.80;;
31686;SDS011;18285;51.330;4.946;2023-09-19T21:49:52;4.63;;;1.55;;
31686;SDS011;18285;51.330;4.946;2023-09-19T22:14:03;3.00;;;1.47;;
31686;SDS011;18285;51.330;4.946;2023-09-19T22:38:14;3.07;;;1.30;;
31686;SDS011;18285;51.330;4.946;2023-09-19T23:02:25;2.58;;;1.55;;
31686;SDS011;18285;51.330;4.946;2023-09-19T23:26:38;3.22;;;1.60;;
31686;SDS011;18285;51.330;4.946;2023-09-19T23:50:54;2.22;;;1.40;;
